Time;durP1;ratioP1;P1;durP2;ratioP2;P2;SDS_P1;SDS_P2;PMS_P1;PMS_P2;Temp;Humidity;BMP_temperature;BMP_pressure;BME280_temperature;BME280_humidity;BME280_pressure;Samples;Min_cycle;Max_cycle;Signal;HPM_P1;HPM_P2
2022/07/13 00:02:07;;;;;;;1.35;1.25;;;26.90;48.60;;;;;;5010001;28;20393;-62
2022/07/13 00:04:33;;;;;;;1.55;1.10;;;26.90;48.70;;;;;;5009944;28;20113;-57
2022/07/13 00:06:59;;;;;;;1.42;1.27;;;26.90;48.80;;;;;;5009832;28;20045;-57
2022/07/13 00:09:25;;;;;;;1.13;1.02;;;26.90;48.80;;;;;;5009288;28;20034;-61
2022/07/13 00:11:50;;;;;;;1.10;1.00;;;26.90;49.00;;;;;;5011031;28;20038;-56
2022/07/13 00:14:16;;;;;;;1.35;0.93;;;26.90;49.10;;;;;;5010713;28;20022;-57
2022/07/13 00:16:42;;;;;;;1.13;1.02;;;26.90;49.20;;;;;;5010342;28;20455;-54
2022/07/13 00:19:08;;;;;;;1.23;1.13;;;26.90;49.20;;;;;;5009566;28;20026;-59
2022/07/13 00:21:34;;;;;;;1.45;1.10;;;26.80;49.30;;;;;;5010749;28;20451;-57
2022/07/13 00:23:59;;;;;;;1.13;0.90;;;26.90;49.50;;;;;;5010451;28;20096;-58
2022/07/13 00:26:25;;;;;;;0.98;0.80;;;26.80;49.60;;;;;;5012490;28;20029;-56
2022/07/13 00:28:51;;;;;;;1.42;1.20;;;26.80;50.20;;;;;;4997713;28;20056;-57
2022/07/13 00:31:17;;;;;;;1.20;1.10;;;26.80;49.60;;;;;;5010306;28;20030;-60
2022/07/13 00:33:43;;;;;;;2.03;0.90;;;26.80;49.70;;;;;;5009937;28;20022;-55
2022/07/13 00:36:08;;;;;;;1.17;0.90;;;26.80;49.90;;;;;;5009724;28;20449;-55
2022/07/13 00:38:37;;;;;;;1.13;1.00;;;26.80;50.00;;;;;;5007893;28;20028;-60
2022/07/13 00:41:06;;;;;;;1.23;1.13;;;26.80;50.10;;;;;;5012095;28;20044;-58
2022/07/13 00:43:32;;;;;;;1.52;1.10;;;26.80;50.30;;;;;;5009632;28;20088;-59
2022/07/13 00:45:58;;;;;;;1.20;1.10;;;26.80;50.40;;;;;;5010277;28;20033;-54
2022/07/13 00:48:25;;;;;;;1.60;1.17;;;26.80;50.50;;;;;;5006042;28;20038;-57
2022/07/13 00:50:51;;;;;;;1.40;1.10;;;26.80;50.60;;;;;;5010512;28;20361;-58
2022/07/13 00:53:18;;;;;;;1.52;1.17;;;26.80;50.70;;;;;;5010251;28;20026;-57
2022/07/13 00:55:48;;;;;;;1.58;1.20;;;26.80;50.80;;;;;;5010725;28;20061;-59
2022/07/13 00:58:13;;;;;;;2.15;1.35;;;26.80;50.90;;;;;;5010729;28;20027;-53
2022/07/13 01:00:39;;;;;;;1.15;0.90;;;26.80;51.00;;;;;;4997248;28;20123;-56
2022/07/13 01:03:05;;;;;;;1.30;1.20;;;26.80;51.00;;;;;;5008912;28;20095;-56
2022/07/13 01:05:31;;;;;;;0.88;0.80;;;26.70;51.10;;;;;;5007364;28;20022;-60
2022/07/13 01:07:57;;;;;;;1.17;1.00;;;26.70;51.20;;;;;;5011933;28;20041;-57
2022/07/13 01:10:24;;;;;;;1.10;1.00;;;26.70;51.20;;;;;;5014037;28;20101;-56
2022/07/13 01:12:50;;;;;;;1.60;1.15;;;26.70;51.30;;;;;;5011325;28;20042;-58
2022/07/13 01:15:16;;;;;;;1.42;1.17;;;26.70;51.40;;;;;;5014062;28;20037;-57
2022/07/13 01:17:43;;;;;;;1.48;1.10;;;26.70;51.50;;;;;;5013326;28;20034;-53
2022/07/13 01:20:09;;;;;;;1.30;1.10;;;26.70;51.50;;;;;;5012390;28;20021;-51
2022/07/13 01:22:42;;;;;;;1.25;1.15;;;26.70;51.50;;;;;;5012219;28;20092;-57
2022/07/13 01:25:09;;;;;;;1.63;1.20;;;26.70;51.60;;;;;;5009438;28;20083;-55
2022/07/13 01:27:36;;;;;;;2.17;1.25;;;26.70;51.60;;;;;;5012887;28;20037;-55
2022/07/13 01:30:04;;;;;;;1.23;1.13;;;26.70;51.70;;;;;;5013171;28;20038;-59
2022/07/13 01:32:48;;;;;;;1.25;1.02;;;26.70;51.80;;;;;;5001692;28;20036;-54
2022/07/13 01:35:15;;;;;;;1.50;1.40;;;26.70;51.90;;;;;;5013110;28;20073;-56
2022/07/13 01:37:42;;;;;;;2.45;1.52;;;26.70;51.90;;;;;;5010335;28;20057;-58
2022/07/13 01:40:11;;;;;;;2.17;1.20;;;26.70;52.00;;;;;;5004104;28;20871;-55
2022/07/13 01:42:56;;;;;;;1.83;1.30;;;26.70;52.00;;;;;;5009592;28;20025;-59
2022/07/13 01:45:23;;;;;;;1.25;1.15;;;26.70;52.00;;;;;;5012322;28;20021;-54
2022/07/13 01:47:53;;;;;;;1.17;1.08;;;26.70;52.00;;;;;;5011505;28;20062;-56
2022/07/13 01:50:21;;;;;;;1.38;1.27;;;26.60;52.00;;;;;;5010304;28;20037;-57
2022/07/13 01:52:48;;;;;;;1.20;1.10;;;26.70;52.00;;;;;;5012869;28;20026;-53
2022/07/13 01:55:14;;;;;;;1.27;1.10;;;26.60;52.00;;;;;;5012793;28;20403;-58
2022/07/13 01:57:42;;;;;;;1.60;0.95;;;26.60;52.00;;;;;;5011397;28;20034;-57
2022/07/13 02:00:13;;;;;;;1.20;1.10;;;26.60;52.10;;;;;;5004550;28;20464;-59
2022/07/13 02:02:40;;;;;;;1.50;1.40;;;26.60;52.10;;;;;;5011276;28;20026;-58
2022/07/13 02:05:09;;;;;;;1.75;1.27;;;26.60;52.10;;;;;;5011266;28;20033;-58
2022/07/13 02:07:37;;;;;;;1.60;1.20;;;26.60;52.10;;;;;;5025745;28;20419;-56
2022/07/13 02:10:05;;;;;;;1.25;1.15;;;26.60;52.00;;;;;;5008305;28;20338;-55
2022/07/13 02:12:31;;;;;;;1.13;1.00;;;26.60;52.10;;;;;;5012242;28;20748;-60
2022/07/13 02:14:58;;;;;;;1.30;1.20;;;26.60;52.10;;;;;;5008486;28;20030;-54
2022/07/13 02:17:24;;;;;;;1.08;0.93;;;26.60;52.10;;;;;;5012365;28;20044;-59
2022/07/13 02:19:51;;;;;;;1.30;1.10;;;26.60;52.10;;;;;;5013576;28;20021;-59
2022/07/13 02:22:16;;;;;;;1.42;1.08;;;26.60;52.10;;;;;;5012603;28;20029;-59
2022/07/13 02:24:42;;;;;;;1.35;1.15;;;26.60;52.10;;;;;;5012013;28;20099;-58
2022/07/13 02:27:08;;;;;;;1.08;1.00;;;26.60;52.10;;;;;;5011101;28;20033;-54
2022/07/13 02:29:34;;;;;;;1.08;0.98;;;26.60;52.10;;;;;;5011128;28;20123;-59
2022/07/13 02:32:00;;;;;;;1.17;1.00;;;26.60;52.20;;;;;;5011066;28;20041;-62
2022/07/13 02:34:29;;;;;;;1.30;1.20;;;26.60;52.20;;;;;;5010793;28;20483;-55
2022/07/13 02:36:56;;;;;;;1.40;1.10;;;26.60;52.20;;;;;;5010550;28;20026;-59
2022/07/13 02:39:22;;;;;;;1.48;1.00;;;26.60;52.20;;;;;;5012606;28;20029;-56
2022/07/13 02:41:49;;;;;;;1.15;0.98;;;26.50;52.10;;;;;;5012987;28;20026;-59
2022/07/13 02:44:17;;;;;;;1.58;1.20;;;26.60;52.10;;;;;;5010833;28;20116;-55
2022/07/13 02:46:43;;;;;;;1.13;1.00;;;26.60;52.10;;;;;;5009580;28;20214;-53
2022/07/13 02:49:09;;;;;;;1.20;1.10;;;26.60;52.10;;;;;;5011287;28;20439;-56
2022/07/13 02:51:35;;;;;;;1.20;1.10;;;26.50;52.10;;;;;;5010516;28;20022;-58
2022/07/13 02:54:02;;;;;;;1.30;1.05;;;26.50;52.10;;;;;;5009273;28;20217;-57
2022/07/13 02:56:28;;;;;;;1.10;1.00;;;26.60;52.20;;;;;;5010890;28;20033;-59
2022/07/13 02:58:54;;;;;;;1.00;0.90;;;26.60;52.20;;;;;;5007143;28;20452;-55
2022/07/13 03:01:20;;;;;;;1.13;1.02;;;26.60;52.10;;;;;;5011482;28;20115;-56
2022/07/13 03:03:46;;;;;;;1.20;1.10;;;26.50;52.00;;;;;;5010373;28;20030;-56
2022/07/13 03:06:13;;;;;;;1.58;1.00;;;26.50;51.90;;;;;;5011077;28;20018;-57
2022/07/13 03:08:39;;;;;;;1.08;0.98;;;26.50;51.90;;;;;;5003346;28;20453;-57
2022/07/13 03:11:05;;;;;;;1.10;1.00;;;26.50;51.80;;;;;;5012394;28;20488;-59
2022/07/13 03:13:31;;;;;;;1.40;1.10;;;26.50;51.80;;;;;;5009622;28;20088;-55
2022/07/13 03:15:58;;;;;;;1.10;0.90;;;26.50;51.70;;;;;;5004945;28;20080;-60
2022/07/13 03:18:24;;;;;;;0.90;0.90;;;26.50;51.60;;;;;;5009690;28;20022;-56
2022/07/13 03:20:49;;;;;;;1.10;1.00;;;26.50;51.50;;;;;;5012082;28;20030;-56
2022/07/13 03:23:15;;;;;;;0.80;0.80;;;26.50;51.40;;;;;;5010120;28;20026;-56
2022/07/13 03:25:41;;;;;;;1.25;1.00;;;26.50;51.40;;;;;;5009413;28;20034;-56
2022/07/13 03:28:07;;;;;;;1.00;0.90;;;26.40;51.30;;;;;;5007931;28;20168;-57
2022/07/13 03:30:33;;;;;;;1.15;1.05;;;26.50;52.00;;;;;;5010939;28;20022;-54
2022/07/13 03:33:00;;;;;;;1.13;0.82;;;26.40;51.30;;;;;;5010321;28;20431;-57
2022/07/13 03:35:25;;;;;;;1.00;0.82;;;26.50;51.30;;;;;;5011213;28;20038;-56
2022/07/13 03:37:51;;;;;;;1.13;1.02;;;26.40;51.20;;;;;;5009155;28;20034;-59
2022/07/13 03:40:21;;;;;;;1.23;1.00;;;26.40;51.10;;;;;;5009115;28;20313;-58
2022/07/13 03:42:50;;;;;;;1.00;0.90;;;26.40;51.10;;;;;;5003003;28;20417;-57
2022/07/13 03:45:16;;;;;;;1.40;1.10;;;26.40;51.10;;;;;;5009235;28;20052;-59
2022/07/13 03:47:42;;;;;;;1.25;0.90;;;26.40;51.00;;;;;;5010336;28;20061;-60
2022/07/13 03:50:09;;;;;;;1.10;1.00;;;26.40;51.00;;;;;;4999773;28;20096;-55
2022/07/13 03:52:35;;;;;;;0.90;0.80;;;26.50;51.10;;;;;;5010364;28;20026;-56
2022/07/13 03:55:02;;;;;;;0.80;0.80;;;26.50;51.00;;;;;;4981517;28;21245;-56
2022/07/13 03:57:29;;;;;;;0.85;0.80;;;26.50;51.00;;;;;;5009469;28;20030;-54
2022/07/13 03:59:55;;;;;;;0.90;0.70;;;26.40;50.80;;;;;;5009692;28;20023;-56
2022/07/13 04:02:20;;;;;;;1.08;0.90;;;26.40;51.30;;;;;;5010302;28;20030;-60
2022/07/13 04:04:47;;;;;;;1.10;1.00;;;26.40;50.70;;;;;;5010379;28;20061;-56
2022/07/13 04:07:13;;;;;;;1.13;1.02;;;26.40;50.70;;;;;;5009476;28;20056;-54
2022/07/13 04:09:39;;;;;;;0.80;0.73;;;26.40;50.60;;;;;;5009110;28;20029;-56
2022/07/13 04:12:05;;;;;;;1.65;0.95;;;26.40;50.60;;;;;;5009499;28;20033;-56
2022/07/13 04:14:32;;;;;;;1.30;0.90;;;26.40;50.70;;;;;;5009231;28;20030;-54
2022/07/13 04:16:58;;;;;;;0.60;0.60;;;26.40;50.60;;;;;;5009257;28;20029;-54
2022/07/13 04:19:25;;;;;;;0.95;0.90;;;26.40;50.60;;;;;;5023340;28;20059;-58
2022/07/13 04:21:51;;;;;;;1.00;0.90;;;26.40;50.60;;;;;;5010986;28;20117;-55
2022/07/13 04:24:17;;;;;;;0.93;0.90;;;26.40;50.60;;;;;;5009059;28;20128;-60
2022/07/13 04:26:43;;;;;;;0.82;0.82;;;26.40;50.60;;;;;;5006660;28;20172;-61
2022/07/13 04:29:10;;;;;;;1.65;1.10;;;26.40;50.60;;;;;;5008846;28;20101;-56
2022/07/13 04:31:38;;;;;;;0.90;0.90;;;26.40;50.50;;;;;;5009559;28;20037;-57
2022/07/13 04:34:04;;;;;;;0.90;0.80;;;26.40;50.50;;;;;;5009704;28;20095;-58
2022/07/13 04:36:30;;;;;;;1.02;0.90;;;26.40;50.40;;;;;;5008517;28;20034;-58
2022/07/13 04:38:57;;;;;;;1.13;1.02;;;26.40;50.40;;;;;;5025098;28;20025;-58
2022/07/13 04:41:24;;;;;;;1.25;0.85;;;26.40;50.40;;;;;;5011005;28;20033;-61
2022/07/13 04:43:52;;;;;;;0.93;0.77;;;26.40;50.40;;;;;;5013707;28;20080;-54
2022/07/13 04:46:18;;;;;;;1.65;1.02;;;26.40;50.40;;;;;;5013042;28;20048;-58
2022/07/13 04:48:46;;;;;;;1.27;0.90;;;26.40;50.30;;;;;;5009700;28;20076;-57
2022/07/13 04:51:12;;;;;;;1.52;1.15;;;26.40;50.30;;;;;;5013457;28;20030;-57
2022/07/13 04:53:39;;;;;;;0.80;0.70;;;26.40;50.30;;;;;;5012876;28;20125;-57
2022/07/13 04:56:09;;;;;;;1.00;0.90;;;26.40;50.30;;;;;;5013463;28;20030;-57
2022/07/13 04:58:35;;;;;;;0.73;0.73;;;26.40;50.20;;;;;;5010293;28;20521;-57
2022/07/13 05:01:01;;;;;;;0.85;0.85;;;26.40;50.30;;;;;;5013133;28;20116;-58
2022/07/13 05:03:27;;;;;;;0.70;0.70;;;26.40;50.20;;;;;;5002897;28;20129;-58
2022/07/13 05:05:53;;;;;;;1.00;0.88;;;26.40;50.20;;;;;;5013993;28;20033;-57
2022/07/13 05:08:19;;;;;;;1.15;0.93;;;26.40;50.20;;;;;;5013136;28;20064;-57
2022/07/13 05:10:46;;;;;;;1.33;0.90;;;26.40;50.20;;;;;;5012346;28;20022;-60
2022/07/13 05:13:12;;;;;;;1.20;1.00;;;26.40;50.20;;;;;;5012746;28;20018;-55
2022/07/13 05:15:38;;;;;;;1.20;0.90;;;26.40;50.20;;;;;;5012799;28;20428;-60
2022/07/13 05:18:05;;;;;;;1.00;0.90;;;26.40;50.20;;;;;;5024439;28;20065;-58
2022/07/13 05:20:31;;;;;;;1.08;0.98;;;26.40;50.80;;;;;;5000806;28;20133;-58
2022/07/13 05:22:58;;;;;;;1.25;0.80;;;26.40;50.10;;;;;;5012459;28;20396;-58
2022/07/13 05:25:27;;;;;;;1.50;1.00;;;26.40;50.10;;;;;;5005121;28;20034;-58
2022/07/13 05:27:53;;;;;;;1.08;0.90;;;26.40;50.00;;;;;;5011686;28;20054;-57
2022/07/13 05:30:19;;;;;;;1.30;0.98;;;26.40;50.00;;;;;;5010595;28;20022;-59
2022/07/13 05:32:45;;;;;;;1.13;1.00;;;26.40;50.00;;;;;;5011769;28;20476;-61
2022/07/13 05:35:11;;;;;;;1.27;1.17;;;26.40;49.90;;;;;;5007988;28;20064;-56
2022/07/13 05:37:37;;;;;;;1.27;0.70;;;26.40;49.90;;;;;;5009088;28;20116;-60
2022/07/13 05:40:04;;;;;;;1.50;1.10;;;26.50;49.90;;;;;;5013768;28;20041;-54
2022/07/13 05:42:30;;;;;;;1.00;0.90;;;26.40;49.90;;;;;;5013479;28;20033;-59
2022/07/13 05:44:56;;;;;;;1.13;1.00;;;26.50;49.90;;;;;;5010836;28;20038;-58
2022/07/13 05:47:22;;;;;;;1.63;1.00;;;26.40;49.80;;;;;;5011450;28;20049;-57
2022/07/13 05:49:48;;;;;;;1.40;1.08;;;26.50;49.80;;;;;;5000009;28;20034;-56
2022/07/13 05:52:17;;;;;;;1.13;0.90;;;26.50;49.80;;;;;;5011782;28;20022;-59
2022/07/13 05:54:42;;;;;;;1.50;1.00;;;26.40;49.70;;;;;;5011404;28;20040;-58
2022/07/13 05:57:08;;;;;;;1.33;1.00;;;26.50;49.80;;;;;;5012310;28;20038;-60
2022/07/13 05:59:34;;;;;;;1.20;1.10;;;26.50;49.80;;;;;;5011961;28;20054;-59
2022/07/13 06:02:00;;;;;;;1.50;1.10;;;26.50;49.70;;;;;;5013456;28;20022;-55
2022/07/13 06:04:26;;;;;;;1.30;1.15;;;26.50;49.70;;;;;;5013345;28;20026;-55
2022/07/13 06:06:52;;;;;;;2.10;1.50;;;26.50;49.70;;;;;;5010244;28;20036;-57
2022/07/13 06:09:18;;;;;;;1.42;1.30;;;26.50;49.70;;;;;;5009621;28;20412;-58
2022/07/13 06:11:46;;;;;;;1.55;1.20;;;26.50;49.70;;;;;;5011532;28;20500;-53
2022/07/13 06:14:12;;;;;;;1.58;1.23;;;26.50;49.60;;;;;;5010671;28;20363;-57
2022/07/13 06:16:38;;;;;;;1.15;1.02;;;26.50;49.60;;;;;;5010398;28;20025;-57
2022/07/13 06:19:04;;;;;;;1.75;1.30;;;26.50;49.50;;;;;;5009979;28;20080;-59
2022/07/13 06:21:30;;;;;;;1.55;1.17;;;26.50;49.50;;;;;;5012002;28;20377;-58
2022/07/13 06:23:56;;;;;;;2.05;1.30;;;26.50;49.40;;;;;;5012222;28;20065;-56
2022/07/13 06:26:22;;;;;;;1.55;1.10;;;26.50;49.40;;;;;;5013174;28;20337;-59
2022/07/13 06:28:48;;;;;;;1.60;1.27;;;26.50;49.40;;;;;;5010618;28;20081;-59
2022/07/13 06:31:14;;;;;;;1.60;1.30;;;26.50;49.40;;;;;;5009223;28;20029;-59
2022/07/13 06:33:43;;;;;;;1.80;1.30;;;26.50;49.40;;;;;;5010251;28;20022;-53
2022/07/13 06:36:09;;;;;;;1.08;0.98;;;26.50;49.40;;;;;;5011232;28;20041;-58
2022/07/13 06:38:35;;;;;;;1.75;1.20;;;26.60;49.50;;;;;;5012595;28;20040;-58
2022/07/13 06:41:01;;;;;;;1.90;1.48;;;26.50;49.40;;;;;;5008970;28;20053;-53
2022/07/13 06:43:26;;;;;;;2.70;1.60;;;26.50;49.40;;;;;;5008841;28;20026;-58
2022/07/13 06:45:52;;;;;;;1.83;1.52;;;26.60;49.50;;;;;;5010556;28;20033;-59
2022/07/13 06:48:18;;;;;;;3.15;1.75;;;26.60;49.50;;;;;;5010838;28;20054;-58
2022/07/13 06:50:44;;;;;;;3.53;1.60;;;26.60;49.50;;;;;;5008349;28;20063;-58
2022/07/13 06:53:10;;;;;;;2.78;1.58;;;26.60;49.50;;;;;;5009464;28;20112;-58
2022/07/13 06:55:36;;;;;;;3.90;1.45;;;26.60;49.50;;;;;;5012214;28;20120;-58
2022/07/13 06:58:02;;;;;;;2.17;1.50;;;26.60;49.50;;;;;;5010641;28;20034;-54
2022/07/13 07:00:29;;;;;;;3.88;1.80;;;26.60;49.50;;;;;;5011130;28;20376;-55
2022/07/13 07:02:55;;;;;;;2.45;1.67;;;26.60;49.50;;;;;;5011421;28;20037;-52
2022/07/13 07:05:21;;;;;;;2.33;1.73;;;26.60;49.50;;;;;;5011157;28;20040;-57
2022/07/13 07:07:46;;;;;;;2.78;2.00;;;26.60;49.50;;;;;;5009564;28;20092;-60
2022/07/13 07:10:12;;;;;;;1.90;1.70;;;26.60;49.50;;;;;;5013550;28;20054;-56
2022/07/13 07:12:38;;;;;;;2.50;1.80;;;26.60;49.50;;;;;;5015134;28;20030;-58
2022/07/13 07:15:05;;;;;;;2.40;1.80;;;26.60;49.50;;;;;;5010715;28;20505;-55
2022/07/13 07:17:30;;;;;;;3.53;2.00;;;26.60;49.50;;;;;;5008827;28;20072;-59
2022/07/13 07:20:00;;;;;;;2.35;1.73;;;26.60;49.50;;;;;;5010493;28;20053;-61
2022/07/13 07:22:27;;;;;;;2.55;1.88;;;26.60;49.50;;;;;;5009858;28;20033;-61
2022/07/13 07:24:53;;;;;;;2.78;2.08;;;26.60;49.50;;;;;;5010047;28;20092;-56
2022/07/13 07:27:19;;;;;;;2.65;1.95;;;26.60;49.50;;;;;;5008522;28;20026;-61
2022/07/13 07:29:46;;;;;;;3.15;1.80;;;26.60;49.50;;;;;;5012024;28;20044;-57
2022/07/13 07:32:12;;;;;;;2.38;1.75;;;26.60;49.50;;;;;;5008294;28;20088;-62
2022/07/13 07:34:38;;;;;;;1.98;1.60;;;26.60;49.50;;;;;;5009585;28;20033;-56
2022/07/13 07:37:04;;;;;;;3.55;2.15;;;26.70;49.50;;;;;;5010295;28;20426;-58
2022/07/13 07:39:30;;;;;;;3.15;2.00;;;26.70;49.60;;;;;;5009950;28;20124;-53
2022/07/13 07:41:56;;;;;;;2.95;2.00;;;26.70;49.50;;;;;;5005741;28;20491;-55
2022/07/13 07:44:22;;;;;;;3.95;2.05;;;26.70;49.50;;;;;;5008314;28;20046;-57
2022/07/13 07:46:48;;;;;;;4.43;1.85;;;26.70;49.50;;;;;;5010970;28;20040;-59
2022/07/13 07:49:15;;;;;;;2.00;1.80;;;26.70;49.50;;;;;;5007289;28;20042;-57
2022/07/13 07:51:41;;;;;;;1.95;1.63;;;26.70;49.50;;;;;;5007886;28;20060;-58
2022/07/13 07:54:07;;;;;;;1.70;1.60;;;26.80;49.60;;;;;;5010101;28;20417;-59
2022/07/13 07:56:32;;;;;;;2.30;1.80;;;26.70;49.50;;;;;;5009972;28;20129;-51
2022/07/13 07:58:58;;;;;;;2.15;1.48;;;26.80;49.60;;;;;;5010475;28;21677;-54
2022/07/13 08:01:24;;;;;;;2.97;1.88;;;26.70;49.50;;;;;;5012868;28;20040;-60
2022/07/13 08:03:50;;;;;;;2.75;1.40;;;26.80;49.60;;;;;;5008526;28;20383;-54
2022/07/13 08:06:16;;;;;;;1.70;1.60;;;26.80;49.60;;;;;;5010110;28;20367;-59
2022/07/13 08:08:42;;;;;;;2.65;1.63;;;26.80;50.30;;;;;;5011036;28;20057;-59
2022/07/13 08:11:10;;;;;;;1.80;1.52;;;26.80;49.70;;;;;;5015506;28;20026;-59
2022/07/13 08:13:36;;;;;;;1.60;1.40;;;26.80;49.70;;;;;;5014638;28;20129;-59
2022/07/13 08:16:03;;;;;;;1.80;1.60;;;26.80;49.70;;;;;;5016500;28;20037;-58
2022/07/13 08:18:29;;;;;;;1.58;1.48;;;26.80;49.70;;;;;;5017903;28;20033;-55
2022/07/13 08:20:55;;;;;;;2.30;1.63;;;26.80;49.60;;;;;;5010433;28;20033;-59
2022/07/13 08:26:05;;;;;;;;;;;26.80;49.60;;;;;;5001399;28;20097;-57
2022/07/13 08:28:31;;;;;;;1.70;1.27;;;26.80;49.60;;;;;;5018114;28;20003;-55
2022/07/13 08:30:57;;;;;;;1.92;1.25;;;26.80;49.70;;;;;;5018944;28;20145;-59
2022/07/13 08:38:53;;;;;;;1.90;1.45;;;26.80;49.60;;;;;;5009137;28;20049;-59
2022/07/13 08:41:19;;;;;;;1.52;1.17;;;26.80;49.60;;;;;;5017964;28;20034;-55
2022/07/13 08:43:45;;;;;;;2.30;1.50;;;26.80;49.60;;;;;;5018410;28;20119;-58
2022/07/13 08:46:11;;;;;;;1.80;1.02;;;26.80;49.60;;;;;;5018224;28;20030;-59
2022/07/13 08:48:40;;;;;;;1.38;1.27;;;26.80;49.60;;;;;;5016273;28;20061;-53
2022/07/13 08:51:06;;;;;;;1.58;1.27;;;26.80;49.60;;;;;;5018899;28;20030;-58
2022/07/13 08:53:32;;;;;;;1.67;1.45;;;26.80;49.60;;;;;;5019261;28;20337;-56
2022/07/13 08:55:58;;;;;;;1.90;1.27;;;26.80;49.60;;;;;;5018215;28;20034;-51
2022/07/13 08:58:25;;;;;;;1.50;1.30;;;26.80;49.60;;;;;;5017475;28;20033;-57
2022/07/13 09:00:50;;;;;;;1.98;1.23;;;26.80;49.70;;;;;;5011437;28;20029;-57
2022/07/13 09:03:16;;;;;;;1.40;1.30;;;26.90;49.80;;;;;;5017903;28;20521;-55
2022/07/13 09:05:43;;;;;;;1.67;1.27;;;26.80;49.80;;;;;;5018226;28;20034;-53
2022/07/13 09:08:10;;;;;;;1.33;1.13;;;26.80;49.80;;;;;;5016741;28;20022;-61
2022/07/13 09:10:53;;;;;;;3.78;1.27;;;26.90;49.90;;;;;;5012743;28;20103;-59
2022/07/13 09:13:41;;;;;;;2.65;1.38;;;26.90;50.00;;;;;;5015954;28;20030;-57
2022/07/13 09:16:23;;;;;;;2.30;1.20;;;26.90;50.00;;;;;;5016043;28;20029;-58
2022/07/13 09:18:50;;;;;;;2.83;1.10;;;26.90;50.10;;;;;;4998211;28;20101;-56
2022/07/13 09:21:18;;;;;;;2.30;1.38;;;26.90;50.10;;;;;;5006812;28;20042;-56
2022/07/13 09:24:03;;;;;;;2.08;1.30;;;26.90;50.10;;;;;;5012305;28;20457;-59
2022/07/13 09:26:40;;;;;;;1.88;1.25;;;26.90;50.20;;;;;;5015216;28;20034;-58
2022/07/13 09:29:06;;;;;;;2.13;1.20;;;27.00;50.20;;;;;;4999439;28;20034;-57
2022/07/13 09:31:50;;;;;;;1.77;1.38;;;26.90;50.20;;;;;;5017670;28;20030;-57
2022/07/13 09:34:17;;;;;;;1.40;1.30;;;26.90;50.10;;;;;;5017782;28;20448;-60
2022/07/13 09:36:43;;;;;;;1.63;1.48;;;27.00;50.20;;;;;;5016354;28;20077;-56
2022/07/13 09:39:10;;;;;;;1.20;1.10;;;27.00;50.20;;;;;;5018120;28;20499;-60
2022/07/13 09:41:36;;;;;;;1.73;1.30;;;27.00;50.20;;;;;;5014957;28;20058;-53
2022/07/13 09:46:58;;;;;;;1.73;1.20;;;27.00;50.20;;;;;;5016363;28;20160;-54
2022/07/13 09:49:44;;;;;;;1.58;1.23;;;27.00;50.20;;;;;;5013373;28;20469;-56
2022/07/13 09:52:19;;;;;;;2.40;1.20;;;27.00;50.20;;;;;;5011435;28;20061;-57
2022/07/13 09:54:51;;;;;;;1.13;1.02;;;27.00;50.20;;;;;;5011659;28;20563;-54
2022/07/13 09:57:21;;;;;;;1.40;1.17;;;27.00;50.20;;;;;;5012952;28;20197;-57
2022/07/13 09:59:49;;;;;;;1.30;1.20;;;27.00;50.20;;;;;;5008560;28;20439;-57
2022/07/13 10:02:16;;;;;;;1.67;1.20;;;27.00;50.10;;;;;;5011181;28;20030;-57
2022/07/13 10:04:43;;;;;;;1.85;1.30;;;27.00;50.10;;;;;;5012101;28;20482;-54
2022/07/13 10:07:09;;;;;;;1.25;1.15;;;27.00;50.10;;;;;;5011064;28;20026;-56
2022/07/13 10:09:39;;;;;;;1.30;1.10;;;27.00;50.10;;;;;;5012027;28;20101;-57
2022/07/13 10:12:10;;;;;;;2.28;1.50;;;27.00;50.10;;;;;;5003851;28;20038;-55
2022/07/13 10:14:37;;;;;;;1.67;1.35;;;27.00;50.00;;;;;;5009942;28;20021;-58
2022/07/13 10:17:09;;;;;;;1.30;1.17;;;27.00;50.00;;;;;;5013486;28;20057;-59
2022/07/13 10:19:42;;;;;;;2.50;1.60;;;27.00;49.90;;;;;;5010564;28;20026;-57
2022/07/13 10:22:19;;;;;;;1.37;1.20;;;27.00;49.90;;;;;;5011419;28;20026;-59
2022/07/13 10:24:55;;;;;;;1.55;1.30;;;27.00;49.90;;;;;;5010935;28;20390;-57
2022/07/13 10:27:22;;;;;;;2.13;1.23;;;27.00;49.90;;;;;;5011820;28;20060;-59
2022/07/13 10:29:50;;;;;;;1.83;1.30;;;27.00;50.00;;;;;;5008395;28;20069;-56
2022/07/13 10:32:20;;;;;;;2.13;1.20;;;27.00;49.90;;;;;;5010545;28;20697;-56
2022/07/13 10:34:56;;;;;;;2.55;1.40;;;27.00;49.90;;;;;;5011163;28;20030;-57
2022/07/13 10:37:23;;;;;;;1.48;1.23;;;27.00;49.90;;;;;;5012104;28;20109;-55
2022/07/13 10:40:10;;;;;;;2.05;1.70;;;27.10;50.00;;;;;;5010640;28;20048;-61
2022/07/13 10:43:12;;;;;;;1.35;1.20;;;27.10;49.80;;;;;;5011888;28;20033;-58
2022/07/13 10:45:44;;;;;;;2.22;1.50;;;27.10;49.80;;;;;;4971907;28;20105;-56
2022/07/13 10:48:24;;;;;;;2.08;1.50;;;27.10;49.80;;;;;;5005705;28;20357;-55
2022/07/13 10:50:53;;;;;;;1.65;1.40;;;27.10;49.80;;;;;;5011118;28;20034;-58
2022/07/13 10:53:19;;;;;;;2.83;1.20;;;27.10;49.80;;;;;;5011661;28;20026;-58
2022/07/13 10:55:49;;;;;;;1.73;1.23;;;27.10;49.90;;;;;;5012014;28;20449;-59
2022/07/13 10:58:40;;;;;;;2.35;1.40;;;27.10;49.80;;;;;;5011844;28;20458;-57
2022/07/13 11:01:32;;;;;;;1.45;1.30;;;27.10;49.80;;;;;;5008766;28;20116;-60
2022/07/13 11:03:58;;;;;;;1.77;1.63;;;27.10;49.80;;;;;;5011006;28;20053;-55
2022/07/13 11:06:25;;;;;;;1.40;1.23;;;27.10;49.80;;;;;;5010939;28;20030;-60
2022/07/13 11:09:19;;;;;;;2.38;1.17;;;27.10;49.80;;;;;;5010475;28;20511;-53
2022/07/13 11:11:53;;;;;;;1.52;1.20;;;27.10;49.80;;;;;;5012313;28;20026;-59
2022/07/13 11:14:40;;;;;;;1.45;1.25;;;27.10;49.80;;;;;;5011168;28;20041;-60
2022/07/13 11:17:19;;;;;;;1.25;1.15;;;27.10;49.80;;;;;;5011329;28;20026;-56
2022/07/13 11:20:03;;;;;;;1.35;1.25;;;27.10;49.80;;;;;;5009518;28;20065;-60
2022/07/13 11:25:46;;;;;;;1.77;0.98;;;27.10;49.80;;;;;;4989761;28;20252;-59
2022/07/13 11:28:25;;;;;;;1.20;1.07;;;27.10;49.80;;;;;;5010932;28;20100;-58
2022/07/13 11:30:55;;;;;;;1.25;1.13;;;27.10;49.80;;;;;;5010012;28;20149;-60
2022/07/13 11:33:21;;;;;;;1.15;1.05;;;27.10;49.80;;;;;;5009051;28;20405;-59
2022/07/13 11:35:47;;;;;;;1.70;1.38;;;27.10;49.80;;;;;;5014553;28;20314;-53
2022/07/13 11:38:15;;;;;;;1.40;1.17;;;27.10;49.80;;;;;;5014725;28;20056;-58
2022/07/13 11:40:41;;;;;;;1.95;1.30;;;27.10;49.80;;;;;;5008424;28;20420;-57
2022/07/13 11:43:09;;;;;;;1.33;1.23;;;27.20;49.90;;;;;;5014580;28;20041;-59
2022/07/13 11:45:37;;;;;;;1.45;0.93;;;27.20;49.90;;;;;;5014466;28;20038;-56
2022/07/13 11:48:05;;;;;;;1.17;1.02;;;27.10;49.70;;;;;;5012770;28;20052;-56
2022/07/13 11:50:41;;;;;;;1.05;0.95;;;27.20;49.60;;;;;;5008133;28;20037;-57
2022/07/13 11:53:07;;;;;;;0.98;0.90;;;27.20;49.40;;;;;;5010474;28;20057;-57
2022/07/13 11:55:35;;;;;;;1.63;1.15;;;27.10;49.20;;;;;;5010107;28;20065;-59
2022/07/13 11:58:01;;;;;;;1.77;1.20;;;27.20;49.10;;;;;;5008515;28;20041;-56
2022/07/13 12:00:28;;;;;;;1.63;0.98;;;27.10;49.00;;;;;;5008965;28;20038;-53
2022/07/13 12:02:55;;;;;;;0.80;0.80;;;27.10;48.80;;;;;;5009692;28;20026;-56
2022/07/13 12:05:26;;;;;;;1.10;1.00;;;27.10;48.70;;;;;;5009445;28;20100;-56
2022/07/13 12:08:04;;;;;;;0.80;0.80;;;27.20;48.60;;;;;;5009692;28;20481;-56
2022/07/13 12:10:34;;;;;;;2.58;1.17;;;27.20;48.40;;;;;;5010014;28;20045;-59
2022/07/13 12:12:59;;;;;;;0.75;0.75;;;27.20;48.30;;;;;;5008600;28;20040;-58
2022/07/13 12:15:26;;;;;;;1.45;1.00;;;27.20;48.10;;;;;;5010139;28;20112;-60
2022/07/13 12:17:53;;;;;;;1.02;0.90;;;27.20;47.90;;;;;;5007710;28;20176;-57
2022/07/13 12:20:21;;;;;;;1.15;1.05;;;27.10;47.70;;;;;;5010001;28;20034;-56
2022/07/13 12:22:55;;;;;;;0.70;0.70;;;27.20;47.60;;;;;;5010717;28;20034;-52
2022/07/13 12:25:35;;;;;;;0.77;0.60;;;27.20;47.50;;;;;;5009712;28;20643;-57
2022/07/13 12:28:07;;;;;;;1.02;0.80;;;27.20;47.40;;;;;;5008449;28;20264;-56
2022/07/13 12:30:34;;;;;;;2.13;0.70;;;27.20;47.40;;;;;;5008744;28;20037;-61
2022/07/13 12:33:03;;;;;;;1.20;0.90;;;27.20;47.30;;;;;;5009755;28;20045;-58
2022/07/13 12:35:31;;;;;;;1.10;0.80;;;27.20;47.20;;;;;;5009929;28;20030;-59
2022/07/13 12:37:58;;;;;;;0.77;0.70;;;27.20;47.20;;;;;;5009933;28;20067;-59
2022/07/13 12:40:36;;;;;;;1.10;0.70;;;27.30;47.30;;;;;;5010084;28;20455;-56
2022/07/13 12:43:03;;;;;;;1.05;0.95;;;27.30;47.30;;;;;;5009656;28;20029;-61
2022/07/13 12:45:32;;;;;;;3.28;1.45;;;27.20;47.20;;;;;;5010805;28;20145;-60
2022/07/13 12:47:58;;;;;;;1.52;1.30;;;27.10;47.40;;;;;;5007002;28;20054;-57
2022/07/13 12:50:30;;;;;;;1.50;1.30;;;27.00;47.50;;;;;;5010309;28;20057;-61
2022/07/13 12:53:02;;;;;;;1.83;1.00;;;26.70;48.20;;;;;;5009478;28;20029;-56
2022/07/13 12:55:28;;;;;;;3.13;1.30;;;26.60;48.80;;;;;;5005479;28;20064;-58
2022/07/13 12:57:54;;;;;;;1.50;1.15;;;26.40;49.10;;;;;;5007757;28;20072;-60
2022/07/13 13:00:25;;;;;;;1.10;1.00;;;26.30;49.30;;;;;;5006839;28;20120;-55
2022/07/13 13:02:51;;;;;;;1.40;1.30;;;26.20;49.60;;;;;;5012418;28;20029;-61
2022/07/13 13:05:18;;;;;;;1.17;0.98;;;26.20;49.80;;;;;;5012650;28;20037;-59
2022/07/13 13:07:44;;;;;;;1.30;1.20;;;26.10;49.90;;;;;;5013082;28;20053;-52